Time,TemperatureF,DewpointF,PressureIn,WindDirection,WindDirectionDegrees,WindSpeedMPH,WindSpeedGustMPH,Humidity,HourlyPrecipIn,Conditions,Clouds,dailyrainin,SoftwareType,DateUTC
2013-06-30 00:07:00,75.6,75.0,29.55,NW,315,0.0,-999.0,98,-99.99,,,0.00,Acu-Link.com,2013-06-30 04:07:00,
2013-06-30 00:22:00,75.4,74.8,29.55,SSE,157,1.1,-999.0,98,-99.99,,,0.00,Acu-Link.com,2013-06-30 04:22:00,
2013-06-30 00:37:00,75.4,74.8,29.55,ENE,67,0.0,-999.0,98,-99.99,,,0.00,Acu-Link.com,2013-06-30 04:37:00,
2013-06-30 00:52:00,75.2,74.6,29.55,SSE,157,0.0,-999.0,98,-99.99,,,0.00,Acu-Link.com,2013-06-30 04:52:00,
2013-06-30 01:07:00,75.2,74.6,29.56,North,0,0.0,-999.0,98,-99.99,,,0.00,Acu-Link.com,2013-06-30 05:07:00,
2013-06-30 01:22:00,75.2,74.6,29.55,NNE,22,0.0,-999.0,98,-99.99,,,0.00,Acu-Link.com,2013-06-30 05:22:00,
2013-06-30 01:37:00,75.2,74.6,29.56,SE,135,0.0,-999.0,98,-99.99,,,0.00,Acu-Link.com,2013-06-30 05:37:00,
2013-06-30 01:52:00,75.2,74.6,29.56,East,90,0.0,-999.0,98,-99.99,,,0.00,Acu-Link.com,2013-06-30 05:52:00,
2013-06-30 02:08:00,75.2,74.6,29.56,SSE,157,0.0,-999.0,98,-99.99,,,0.00,Acu-Link.com,2013-06-30 06:08:00,
2013-06-30 02:23:00,75.2,74.6,29.56,ESE,112,0.0,-999.0,98,-99.99,,,0.00,Acu-Link.com,2013-06-30 06:23:00,
2013-06-30 02:38:00,75.2,74.6,29.55,WNW,292,0.0,-999.0,98,-99.99,,,0.00,Acu-Link.com,2013-06-30 06:38:00,
2013-06-30 02:53:00,75.2,74.6,29.55,South,180,0.0,-999.0,98,-99.99,,,0.00,Acu-Link.com,2013-06-30 06:53:00,
2013-06-30 03:08:00,75.2,74.6,29.54,SE,135,1.1,-999.0,98,-99.99,,,0.00,Acu-Link.com,2013-06-30 07:08:00,
2013-06-30 03:23:00,75.0,74.4,29.54,South,180,0.0,-999.0,98,-99.99,,,0.00,Acu-Link.com,2013-06-30 07:23:00,
2013-06-30 03:38:00,74.8,74.2,29.55,WNW,292,0.0,-999.0,98,-99.99,,,0.00,Acu-Link.com,2013-06-30 07:38:00,
2013-06-30 03:53:00,74.8,74.2,29.53,SE,135,0.0,-999.0,98,-99.99,,,0.00,Acu-Link.com,2013-06-30 07:53:00,
2013-06-30 04:09:00,74.8,74.2,29.53,SSE,157,0.0,-999.0,98,-99.99,,,0.00,Acu-Link.com,2013-06-30 08:09:00,
2013-06-30 04:24:00,74.8,74.2,29.54,NNE,22,0.0,-999.0,98,-99.99,,,0.00,Acu-Link.com,2013-06-30 08:24:00,
2013-06-30 04:39:00,74.8,74.2,29.54,ESE,112,1.1,-999.0,98,-99.99,,,0.00,Acu-Link.com,2013-06-30 08:39:00,
2013-06-30 04:54:00,74.8,74.2,29.54,SSE,157,0.0,-999.0,98,-99.99,,,0.00,Acu-Link.com,2013-06-30 08:54:00,
2013-06-30 05:10:00,74.8,74.2,29.55,NNE,22,0.0,-999.0,98,-99.99,,,0.00,Acu-Link.com,2013-06-30 09:10:00,
2013-06-30 05:25:00,74.7,74.1,29.56,North,0,1.1,-999.0,98,-99.99,,,0.00,Acu-Link.com,2013-06-30 09:25:00,
2013-06-30 05:40:00,74.7,74.1,29.56,SSE,157,0.0,-999.0,98,-99.99,,,0.00,Acu-Link.com,2013-06-30 09:40:00,
2013-06-30 05:55:00,74.5,73.9,29.57,ENE,67,0.0,-999.0,98,-99.99,,,0.00,Acu-Link.com,2013-06-30 09:55:00,
2013-06-30 06:10:00,74.5,73.9,29.57,ESE,112,0.0,-999.0,98,-99.99,,,0.00,Acu-Link.com,2013-06-30 10:10:00,
2013-06-30 06:25:00,74.5,73.9,29.57,WNW,292,0.0,-999.0,98,-99.99,,,0.00,Acu-Link.com,2013-06-30 10:25:00,
2013-06-30 06:40:00,74.5,73.9,29.58,ENE,67,0.0,-999.0,98,-99.99,,,0.00,Acu-Link.com,2013-06-30 10:40:00,
2013-06-30 06:55:00,74.7,74.1,29.58,ESE,112,0.0,-999.0,98,-99.99,,,0.00,Acu-Link.com,2013-06-30 10:55:00,
2013-06-30 07:10:00,74.8,74.2,29.59,South,180,3.2,-999.0,98,-99.99,,,0.00,Acu-Link.com,2013-06-30 11:10:00,
2013-06-30 07:26:00,74.8,74.2,29.60,ESE,112,0.0,-999.0,98,-99.99,,,0.00,Acu-Link.com,2013-06-30 11:26:00,
2013-06-30 07:41:00,75.0,74.4,29.60,SSW,202,0.0,-999.0,98,-99.99,,,0.00,Acu-Link.com,2013-06-30 11:41:00,
2013-06-30 07:56:00,76.5,75.9,29.60,East,90,1.7,-999.0,98,-99.99,,,0.00,Acu-Link.com,2013-06-30 11:56:00,
2013-06-30 08:11:00,77.7,77.1,29.60,West,270,1.7,-999.0,98,-99.99,,,0.00,Acu-Link.com,2013-06-30 12:11:00,
2013-06-30 08:27:00,77.9,77.3,29.61,NNE,22,0.0,-999.0,98,-99.99,,,0.00,Acu-Link.com,2013-06-30 12:27:00,
2013-06-30 08:42:00,77.9,77.3,29.61,SW,225,2.7,-999.0,98,-99.99,,,0.00,Acu-Link.com,2013-06-30 12:42:00,
2013-06-30 08:57:00,79.0,78.4,29.61,NW,315,0.0,-999.0,98,-99.99,,,0.00,Acu-Link.com,2013-06-30 12:57:00,
2013-06-30 09:12:00,80.1,79.5,29.60,WNW,292,1.1,-999.0,98,-99.99,,,0.00,Acu-Link.com,2013-06-30 13:12:00,
2013-06-30 09:27:00,80.6,80.0,29.61,SW,225,1.1,-999.0,98,-99.99,,,0.00,Acu-Link.com,2013-06-30 13:27:00,
2013-06-30 09:43:00,80.6,80.0,29.61,SSE,157,0.0,-999.0,98,-99.99,,,0.00,Acu-Link.com,2013-06-30 13:43:00,
2013-06-30 09:58:00,81.3,80.7,29.62,NNW,337,0.0,-999.0,98,-99.99,,,0.00,Acu-Link.com,2013-06-30 13:58:00,
2013-06-30 10:13:00,82.8,82.2,29.61,SSE,157,0.0,-999.0,98,-99.99,,,0.00,Acu-Link.com,2013-06-30 14:13:00,
2013-06-30 10:28:00,82.0,81.4,29.60,NE,45,0.0,-999.0,98,-99.99,,,0.00,Acu-Link.com,2013-06-30 14:28:00,
2013-06-30 10:43:00,83.3,82.7,29.60,SSE,157,0.0,-999.0,98,-99.99,,,0.00,Acu-Link.com,2013-06-30 14:43:00,
2013-06-30 10:58:00,83.5,82.9,29.60,WSW,247,1.7,-999.0,98,-99.99,,,0.00,Acu-Link.com,2013-06-30 14:58:00,
2013-06-30 11:13:00,83.5,82.9,29.61,ESE,112,0.0,-999.0,98,-99.99,,,0.00,Acu-Link.com,2013-06-30 15:13:00,
2013-06-30 11:28:00,83.5,82.9,29.61,NW,315,0.0,-999.0,98,-99.99,,,0.00,Acu-Link.com,2013-06-30 15:28:00,
2013-06-30 11:43:00,82.2,81.6,29.62,West,270,0.0,-999.0,98,-99.99,,,0.00,Acu-Link.com,2013-06-30 15:43:00,
2013-06-30 11:59:00,85.3,84.7,29.61,South,180,0.0,-999.0,98,-99.99,,,0.00,Acu-Link.com,2013-06-30 15:59:00,
2013-06-30 12:14:00,84.7,84.1,29.61,ESE,112,0.0,-999.0,98,-99.99,,,0.00,Acu-Link.com,2013-06-30 16:14:00,
2013-06-30 12:29:00,85.6,85.0,29.60,ESE,112,0.0,-999.0,98,-99.99,,,0.00,Acu-Link.com,2013-06-30 16:29:00,
2013-06-30 12:44:00,85.3,84.7,29.60,SE,135,0.0,-999.0,98,-99.99,,,0.00,Acu-Link.com,2013-06-30 16:44:00,
2013-06-30 12:59:00,83.8,83.2,29.60,NNE,22,1.7,-999.0,98,-99.99,,,0.00,Acu-Link.com,2013-06-30 16:59:00,
2013-06-30 13:14:00,83.8,83.2,29.59,ESE,112,2.7,-999.0,98,-99.99,,,0.00,Acu-Link.com,2013-06-30 17:14:00,
2013-06-30 13:29:00,86.4,85.8,29.60,ESE,112,1.7,-999.0,98,-99.99,,,0.00,Acu-Link.com,2013-06-30 17:29:00,
2013-06-30 13:45:00,85.5,84.9,29.59,NNE,22,1.7,-999.0,98,-99.99,,,0.00,Acu-Link.com,2013-06-30 17:45:00,
2013-06-30 14:00:00,85.1,84.5,29.60,NE,45,5.8,-999.0,98,-99.99,,,0.00,Acu-Link.com,2013-06-30 18:00:00,
2013-06-30 14:15:00,86.0,85.4,29.59,ESE,112,2.7,-999.0,98,-99.99,,,0.00,Acu-Link.com,2013-06-30 18:15:00,
2013-06-30 14:31:00,86.9,86.3,29.58,ESE,112,2.2,-999.0,98,-99.99,,,0.00,Acu-Link.com,2013-06-30 18:31:00,
2013-06-30 14:46:00,87.1,86.5,29.57,SSE,157,4.7,-999.0,98,-99.99,,,0.00,Acu-Link.com,2013-06-30 18:46:00,
2013-06-30 15:01:00,84.9,84.3,29.58,ESE,112,3.2,-999.0,98,-99.99,,,0.00,Acu-Link.com,2013-06-30 19:01:00,
2013-06-30 15:16:00,85.1,84.5,29.60,SSE,157,5.3,-999.0,98,-99.99,,,0.00,Acu-Link.com,2013-06-30 19:16:00,
2013-06-30 15:31:00,84.2,83.6,29.59,SSE,157,3.2,-999.0,98,-99.99,,,0.00,Acu-Link.com,2013-06-30 19:31:00,
2013-06-30 15:46:00,84.0,83.4,29.60,ESE,112,1.7,-999.0,98,-99.99,,,0.00,Acu-Link.com,2013-06-30 19:46:00,
2013-06-30 16:02:00,84.2,83.6,29.62,ENE,67,1.7,-999.0,98,-99.99,,,0.00,Acu-Link.com,2013-06-30 20:02:00,
2013-06-30 16:17:00,78.6,78.0,29.62,West,270,4.7,-999.0,98,-99.99,,,0.00,Acu-Link.com,2013-06-30 20:17:00,
2013-06-30 16:33:00,76.1,75.5,29.62,SSW,202,1.1,-999.0,98,-99.99,,,0.00,Acu-Link.com,2013-06-30 20:33:00,
2013-06-30 16:48:00,75.4,74.8,29.64,SSE,157,1.1,-999.0,98,-99.99,,,0.00,Acu-Link.com,2013-06-30 20:48:00,
2013-06-30 17:03:00,73.9,73.3,29.64,ENE,67,0.0,-999.0,98,-99.99,,,0.11,Acu-Link.com,2013-06-30 21:03:00,
2013-06-30 17:18:00,73.2,72.6,29.63,West,270,1.1,-999.0,98,-99.99,,,0.16,Acu-Link.com,2013-06-30 21:18:00,
2013-06-30 17:33:00,73.0,72.4,29.63,NNW,337,1.7,-999.0,98,-99.99,,,0.19,Acu-Link.com,2013-06-30 21:33:00,
2013-06-30 17:49:00,73.4,72.8,29.63,South,180,0.0,-999.0,98,-99.99,,,0.20,Acu-Link.com,2013-06-30 21:49:00,
2013-06-30 18:04:00,73.6,73.0,29.63,NNW,337,0.0,-999.0,98,-99.99,,,0.20,Acu-Link.com,2013-06-30 22:04:00,
2013-06-30 18:19:00,73.2,72.6,29.65,West,270,1.7,-999.0,98,-99.99,,,0.20,Acu-Link.com,2013-06-30 22:19:00,
2013-06-30 18:34:00,72.3,71.7,29.65,ESE,112,0.0,-999.0,98,-99.99,,,0.21,Acu-Link.com,2013-06-30 22:34:00,
2013-06-30 18:49:00,71.6,71.0,29.64,SSE,157,0.0,-999.0,98,-99.99,,,0.21,Acu-Link.com,2013-06-30 22:49:00,
2013-06-30 19:04:00,71.2,70.6,29.65,South,180,0.0,-999.0,98,-99.99,,,0.21,Acu-Link.com,2013-06-30 23:04:00,
2013-06-30 19:19:00,71.4,70.8,29.65,SSE,157,0.0,-999.0,98,-99.99,,,0.22,Acu-Link.com,2013-06-30 23:19:00,
2013-06-30 19:34:00,71.4,70.8,29.65,SE,135,0.0,-999.0,98,-99.99,,,0.24,Acu-Link.com,2013-06-30 23:34:00,
2013-06-30 19:49:00,71.4,70.8,29.65,NNE,22,0.0,-999.0,98,-99.99,,,0.27,Acu-Link.com,2013-06-30 23:49:00,
2013-06-30 20:05:00,71.8,71.2,29.65,SE,135,0.0,-999.0,98,-99.99,,,0.28,Acu-Link.com,2013-07-01 00:05:00,
2013-06-30 20:20:00,72.0,71.4,29.65,SSE,157,0.0,-999.0,98,-99.99,,,0.28,Acu-Link.com,2013-07-01 00:20:00,
2013-06-30 20:35:00,72.0,71.4,29.66,ESE,112,0.0,-999.0,98,-99.99,,,0.31,Acu-Link.com,2013-07-01 00:35:00,
2013-06-30 20:50:00,72.0,71.4,29.65,ESE,112,0.0,-999.0,98,-99.99,,,0.35,Acu-Link.com,2013-07-01 00:50:00,
2013-06-30 21:05:00,72.1,71.5,29.66,SE,135,0.0,-999.0,98,-99.99,,,0.37,Acu-Link.com,2013-07-01 01:05:00,
2013-06-30 21:20:00,72.1,71.5,29.67,North,0,0.0,-999.0,98,-99.99,,,0.37,Acu-Link.com,2013-07-01 01:20:00,
2013-06-30 21:36:00,72.5,71.9,29.67,SSW,202,0.0,-999.0,98,-99.99,,,0.37,Acu-Link.com,2013-07-01 01:36:00,
2013-06-30 21:51:00,72.7,72.1,29.67,SSE,157,0.0,-999.0,98,-99.99,,,0.37,Acu-Link.com,2013-07-01 01:51:00,
2013-06-30 22:06:00,72.7,72.1,29.68,SSE,157,0.0,-999.0,98,-99.99,,,0.37,Acu-Link.com,2013-07-01 02:06:00,
2013-06-30 22:21:00,72.7,72.1,29.68,SSE,157,1.1,-999.0,98,-99.99,,,0.38,Acu-Link.com,2013-07-01 02:21:00,
2013-06-30 22:36:00,72.7,72.1,29.68,East,90,0.0,-999.0,98,-99.99,,,0.39,Acu-Link.com,2013-07-01 02:36:00,
2013-06-30 22:51:00,72.7,72.1,29.68,NNW,337,0.0,-999.0,98,-99.99,,,0.40,Acu-Link.com,2013-07-01 02:51:00,
2013-06-30 23:07:00,72.7,72.1,29.67,SSE,157,0.0,-999.0,98,-99.99,,,0.41,Acu-Link.com,2013-07-01 03:07:00,
2013-06-30 23:22:00,72.7,72.1,29.67,SE,135,1.7,-999.0,98,-99.99,,,0.41,Acu-Link.com,2013-07-01 03:22:00,
2013-06-30 23:37:00,72.5,71.9,29.69,East,90,0.0,-999.0,98,-99.99,,,0.41,Acu-Link.com,2013-07-01 03:37:00,
2013-06-30 23:52:00,72.7,72.1,29.69,West,270,0.0,-999.0,98,-99.99,,,0.41,Acu-Link.com,2013-07-01 03:52:00,